Bradley, Arkansas
Current Conditions -  °F | °C
As of 3:53 AM on Friday 31 Oct 2014 (Local Time) from KTXK Reporting Station
Clear Clear  
Wind Chill: 54°   Ceiling: Unl
Heat Index: 54°   Visibility: 10mi
Dew Point: 44°   Wind: 7mph
Humidity: 69%   Direction: 320°NW
Pressure: 30.1"   Gusts: NA
Location:  33.1°N, 93.65°W
Report Text: KTXK 310853Z AUTO 32006KT 10SM CLR 12/07 A3010 RMK AO2 SLP190 T01220067 52001
Loading
Personal Weather Stations






























Interactive Weather Map
Tropical Storm Tracking
New forecast layout! Learn more

10-Day Weather Forecast

Advertisements
Track Severe Weather on mobile